sensor_id;sensor_type;location;lat;lon;timestamp;temperature;humidity
84739;DHT22;74969;44.836;-0.586;2024-02-14T00:01:23;11.00;76.50
84739;DHT22;74969;44.836;-0.586;2024-02-14T00:03:49;11.00;76.30
84739;DHT22;74969;44.836;-0.586;2024-02-14T00:06:14;11.00;76.10
84739;DHT22;74969;44.836;-0.586;2024-02-14T00:08:40;11.00;76.10
84739;DHT22;74969;44.836;-0.586;2024-02-14T00:11:06;11.00;76.00
84739;DHT22;74969;44.836;-0.586;2024-02-14T00:13:32;11.00;76.20
84739;DHT22;74969;44.836;-0.586;2024-02-14T00:16:00;10.90;76.40
84739;DHT22;74969;44.836;-0.586;2024-02-14T00:18:26;10.90;76.30
84739;DHT22;74969;44.836;-0.586;2024-02-14T00:20:51;10.90;76.30
84739;DHT22;74969;44.836;-0.586;2024-02-14T00:23:17;10.90;76.50
84739;DHT22;74969;44.836;-0.586;2024-02-14T00:25:43;10.80;76.50
84739;DHT22;74969;44.836;-0.586;2024-02-14T00:28:08;10.80;76.50
84739;DHT22;74969;44.836;-0.586;2024-02-14T00:30:34;10.80;76.50
84739;DHT22;74969;44.836;-0.586;2024-02-14T00:32:59;10.80;76.70
84739;DHT22;74969;44.836;-0.586;2024-02-14T00:35:25;10.80;76.90
84739;DHT22;74969;44.836;-0.586;2024-02-14T00:37:51;10.70;77.00
84739;DHT22;74969;44.836;-0.586;2024-02-14T00:40:17;10.70;77.10
84739;DHT22;74969;44.836;-0.586;2024-02-14T00:42:43;10.60;77.20
84739;DHT22;74969;44.836;-0.586;2024-02-14T00:45:09;10.60;76.90
84739;DHT22;74969;44.836;-0.586;2024-02-14T00:47:35;10.60;77.30
84739;DHT22;74969;44.836;-0.586;2024-02-14T00:50:01;10.60;77.30
84739;DHT22;74969;44.836;-0.586;2024-02-14T00:52:28;10.60;77.40
84739;DHT22;74969;44.836;-0.586;2024-02-14T00:54:54;10.60;77.40
84739;DHT22;74969;44.836;-0.586;2024-02-14T00:57:20;10.60;77.50
84739;DHT22;74969;44.836;-0.586;2024-02-14T00:59:46;10.50;77.60
84739;DHT22;74969;44.836;-0.586;2024-02-14T01:02:12;10.50;77.60
84739;DHT22;74969;44.836;-0.586;2024-02-14T01:04:37;10.50;77.70
84739;DHT22;74969;44.836;-0.586;2024-02-14T01:07:03;10.50;77.80
84739;DHT22;74969;44.836;-0.586;2024-02-14T01:09:29;10.50;77.70
84739;DHT22;74969;44.836;-0.586;2024-02-14T01:11:55;10.50;77.60
84739;DHT22;74969;44.836;-0.586;2024-02-14T01:14:21;10.50;77.60
84739;DHT22;74969;44.836;-0.586;2024-02-14T01:16:47;10.40;77.70
84739;DHT22;74969;44.836;-0.586;2024-02-14T01:19:13;10.40;77.90
84739;DHT22;74969;44.836;-0.586;2024-02-14T01:21:39;10.30;78.20
84739;DHT22;74969;44.836;-0.586;2024-02-14T01:24:05;10.30;78.20
84739;DHT22;74969;44.836;-0.586;2024-02-14T01:26:31;10.30;78.20
84739;DHT22;74969;44.836;-0.586;2024-02-14T01:28:57;10.20;78.30
84739;DHT22;74969;44.836;-0.586;2024-02-14T01:31:25;10.20;78.30
84739;DHT22;74969;44.836;-0.586;2024-02-14T01:33:51;10.20;78.40
84739;DHT22;74969;44.836;-0.586;2024-02-14T01:36:17;10.20;78.40
84739;DHT22;74969;44.836;-0.586;2024-02-14T01:38:42;10.10;78.40
84739;DHT22;74969;44.836;-0.586;2024-02-14T01:41:08;10.10;78.40
84739;DHT22;74969;44.836;-0.586;2024-02-14T01:43:34;10.10;78.40
84739;DHT22;74969;44.836;-0.586;2024-02-14T01:46:05;10.00;78.40
84739;DHT22;74969;44.836;-0.586;2024-02-14T01:48:31;10.00;78.60
84739;DHT22;74969;44.836;-0.586;2024-02-14T01:50:57;10.00;78.30
84739;DHT22;74969;44.836;-0.586;2024-02-14T01:53:25;9.90;78.50
84739;DHT22;74969;44.836;-0.586;2024-02-14T01:55:51;9.90;78.70
84739;DHT22;74969;44.836;-0.586;2024-02-14T01:58:17;9.90;78.70
84739;DHT22;74969;44.836;-0.586;2024-02-14T02:00:43;9.80;78.70
84739;DHT22;74969;44.836;-0.586;2024-02-14T02:03:10;9.80;78.70
84739;DHT22;74969;44.836;-0.586;2024-02-14T02:05:36;9.80;78.80
84739;DHT22;74969;44.836;-0.586;2024-02-14T02:08:02;9.80;78.80
84739;DHT22;74969;44.836;-0.586;2024-02-14T02:10:27;9.80;78.90
84739;DHT22;74969;44.836;-0.586;2024-02-14T02:13:00;9.70;78.90
84739;DHT22;74969;44.836;-0.586;2024-02-14T02:15:26;9.70;78.90
84739;DHT22;74969;44.836;-0.586;2024-02-14T02:17:54;9.70;78.70
84739;DHT22;74969;44.836;-0.586;2024-02-14T02:20:20;9.70;78.60
84739;DHT22;74969;44.836;-0.586;2024-02-14T02:22:46;9.70;78.80
84739;DHT22;74969;44.836;-0.586;2024-02-14T02:25:14;9.70;78.70
84739;DHT22;74969;44.836;-0.586;2024-02-14T02:27:39;9.70;78.70
84739;DHT22;74969;44.836;-0.586;2024-02-14T02:30:06;9.70;78.60
84739;DHT22;74969;44.836;-0.586;2024-02-14T02:32:32;9.70;78.70
84739;DHT22;74969;44.836;-0.586;2024-02-14T02:34:58;9.60;78.70
84739;DHT22;74969;44.836;-0.586;2024-02-14T02:37:25;9.60;78.80
84739;DHT22;74969;44.836;-0.586;2024-02-14T02:39:51;9.60;78.90
84739;DHT22;74969;44.836;-0.586;2024-02-14T02:42:17;9.60;78.80
84739;DHT22;74969;44.836;-0.586;2024-02-14T02:44:46;9.60;78.80
84739;DHT22;74969;44.836;-0.586;2024-02-14T02:47:12;9.60;78.80
84739;DHT22;74969;44.836;-0.586;2024-02-14T02:49:38;9.60;78.70
84739;DHT22;74969;44.836;-0.586;2024-02-14T02:52:04;9.60;78.70
84739;DHT22;74969;44.836;-0.586;2024-02-14T02:54:30;9.60;78.80
84739;DHT22;74969;44.836;-0.586;2024-02-14T02:56:55;9.50;78.70
84739;DHT22;74969;44.836;-0.586;2024-02-14T02:59:21;9.50;78.70
84739;DHT22;74969;44.836;-0.586;2024-02-14T03:01:47;9.50;78.80
84739;DHT22;74969;44.836;-0.586;2024-02-14T03:04:15;9.50;78.80
84739;DHT22;74969;44.836;-0.586;2024-02-14T03:06:40;9.50;78.70
84739;DHT22;74969;44.836;-0.586;2024-02-14T03:09:08;9.50;78.70
84739;DHT22;74969;44.836;-0.586;2024-02-14T03:11:34;9.50;78.70
84739;DHT22;74969;44.836;-0.586;2024-02-14T03:14:01;9.40;78.90
84739;DHT22;74969;44.836;-0.586;2024-02-14T03:16:27;9.40;78.90
84739;DHT22;74969;44.836;-0.586;2024-02-14T03:18:53;9.50;78.80
84739;DHT22;74969;44.836;-0.586;2024-02-14T03:21:20;9.40;78.70
84739;DHT22;74969;44.836;-0.586;2024-02-14T03:23:45;9.40;78.80
84739;DHT22;74969;44.836;-0.586;2024-02-14T03:26:11;9.40;78.80
84739;DHT22;74969;44.836;-0.586;2024-02-14T03:28:37;9.40;78.70
84739;DHT22;74969;44.836;-0.586;2024-02-14T03:31:02;9.40;78.60
84739;DHT22;74969;44.836;-0.586;2024-02-14T03:33:28;9.40;78.70
84739;DHT22;74969;44.836;-0.586;2024-02-14T03:35:54;9.30;78.70
84739;DHT22;74969;44.836;-0.586;2024-02-14T03:38:29;9.30;78.80
84739;DHT22;74969;44.836;-0.586;2024-02-14T03:40:56;9.30;78.90
84739;DHT22;74969;44.836;-0.586;2024-02-14T03:43:22;9.30;79.00
84739;DHT22;74969;44.836;-0.586;2024-02-14T03:45:49;9.30;79.00
84739;DHT22;74969;44.836;-0.586;2024-02-14T03:48:15;9.20;79.00
84739;DHT22;74969;44.836;-0.586;2024-02-14T03:50:41;9.20;79.10
84739;DHT22;74969;44.836;-0.586;2024-02-14T03:53:08;9.30;79.00
84739;DHT22;74969;44.836;-0.586;2024-02-14T03:55:37;9.20;78.90
84739;DHT22;74969;44.836;-0.586;2024-02-14T03:58:03;9.30;78.90
84739;DHT22;74969;44.836;-0.586;2024-02-14T04:00:29;9.20;78.80
84739;DHT22;74969;44.836;-0.586;2024-02-14T04:02:55;9.20;79.00
84739;DHT22;74969;44.836;-0.586;2024-02-14T04:05:27;9.20;78.90
84739;DHT22;74969;44.836;-0.586;2024-02-14T04:07:54;9.10;79.10
84739;DHT22;74969;44.836;-0.586;2024-02-14T04:10:20;9.10;79.10
84739;DHT22;74969;44.836;-0.586;2024-02-14T04:12:46;9.10;79.10
84739;DHT22;74969;44.836;-0.586;2024-02-14T04:15:12;9.10;79.30
84739;DHT22;74969;44.836;-0.586;2024-02-14T04:17:39;9.00;79.40
84739;DHT22;74969;44.836;-0.586;2024-02-14T04:20:05;9.00;79.40
84739;DHT22;74969;44.836;-0.586;2024-02-14T04:22:31;9.00;79.50
84739;DHT22;74969;44.836;-0.586;2024-02-14T04:24:56;9.00;79.60
84739;DHT22;74969;44.836;-0.586;2024-02-14T04:27:22;8.90;79.60
84739;DHT22;74969;44.836;-0.586;2024-02-14T04:29:48;8.90;79.70
84739;DHT22;74969;44.836;-0.586;2024-02-14T04:32:14;8.80;79.80
84739;DHT22;74969;44.836;-0.586;2024-02-14T04:34:40;8.80;79.80
84739;DHT22;74969;44.836;-0.586;2024-02-14T04:37:06;8.80;79.80
84739;DHT22;74969;44.836;-0.586;2024-02-14T04:39:44;8.80;79.80
84739;DHT22;74969;44.836;-0.586;2024-02-14T04:42:09;8.70;80.00
84739;DHT22;74969;44.836;-0.586;2024-02-14T04:44:35;8.70;80.00
84739;DHT22;74969;44.836;-0.586;2024-02-14T04:47:01;8.70;80.10
84739;DHT22;74969;44.836;-0.586;2024-02-14T04:49:27;8.70;80.20
84739;DHT22;74969;44.836;-0.586;2024-02-14T04:51:56;8.70;80.30
84739;DHT22;74969;44.836;-0.586;2024-02-14T04:54:22;8.60;80.30
84739;DHT22;74969;44.836;-0.586;2024-02-14T04:56:48;8.60;80.50
84739;DHT22;74969;44.836;-0.586;2024-02-14T04:59:14;8.60;80.50
84739;DHT22;74969;44.836;-0.586;2024-02-14T05:01:40;8.50;80.70
84739;DHT22;74969;44.836;-0.586;2024-02-14T05:04:06;8.50;80.60
84739;DHT22;74969;44.836;-0.586;2024-02-14T05:06:32;8.50;80.60
84739;DHT22;74969;44.836;-0.586;2024-02-14T05:08:58;8.50;80.70
84739;DHT22;74969;44.836;-0.586;2024-02-14T05:11:24;8.50;80.80
84739;DHT22;74969;44.836;-0.586;2024-02-14T05:13:50;8.50;80.80
84739;DHT22;74969;44.836;-0.586;2024-02-14T05:16:22;8.50;80.80
84739;DHT22;74969;44.836;-0.586;2024-02-14T05:18:48;8.40;80.90
84739;DHT22;74969;44.836;-0.586;2024-02-14T05:21:14;8.40;80.70
84739;DHT22;74969;44.836;-0.586;2024-02-14T05:23:40;8.40;80.90
84739;DHT22;74969;44.836;-0.586;2024-02-14T05:26:06;8.40;80.90
84739;DHT22;74969;44.836;-0.586;2024-02-14T05:28:32;8.40;80.90
84739;DHT22;74969;44.836;-0.586;2024-02-14T05:30:59;8.50;80.80
84739;DHT22;74969;44.836;-0.586;2024-02-14T05:33:25;8.50;80.70
84739;DHT22;74969;44.836;-0.586;2024-02-14T05:35:52;8.40;80.80
84739;DHT22;74969;44.836;-0.586;2024-02-14T05:38:18;8.40;80.70
84739;DHT22;74969;44.836;-0.586;2024-02-14T05:40:47;8.50;80.50
84739;DHT22;74969;44.836;-0.586;2024-02-14T05:43:14;8.50;80.50
84739;DHT22;74969;44.836;-0.586;2024-02-14T05:45:39;8.40;80.40
84739;DHT22;74969;44.836;-0.586;2024-02-14T05:48:06;8.40;80.70
84739;DHT22;74969;44.836;-0.586;2024-02-14T05:50:33;8.30;80.80
84739;DHT22;74969;44.836;-0.586;2024-02-14T05:52:58;8.30;81.00
84739;DHT22;74969;44.836;-0.586;2024-02-14T05:55:24;8.30;81.10
84739;DHT22;74969;44.836;-0.586;2024-02-14T05:57:51;8.20;81.20
84739;DHT22;74969;44.836;-0.586;2024-02-14T06:00:18;8.20;81.10
84739;DHT22;74969;44.836;-0.586;2024-02-14T06:02:48;8.20;81.20
84739;DHT22;74969;44.836;-0.586;2024-02-14T06:05:15;8.20;81.20
84739;DHT22;74969;44.836;-0.586;2024-02-14T06:07:41;8.20;81.10
84739;DHT22;74969;44.836;-0.586;2024-02-14T06:10:08;8.20;81.20
84739;DHT22;74969;44.836;-0.586;2024-02-14T06:12:34;8.10;81.20
84739;DHT22;74969;44.836;-0.586;2024-02-14T06:15:00;8.10;81.30
84739;DHT22;74969;44.836;-0.586;2024-02-14T06:17:26;8.10;81.40
84739;DHT22;74969;44.836;-0.586;2024-02-14T06:19:53;8.10;81.20
84739;DHT22;74969;44.836;-0.586;2024-02-14T06:22:18;8.10;81.30
84739;DHT22;74969;44.836;-0.586;2024-02-14T06:24:44;8.10;81.30
84739;DHT22;74969;44.836;-0.586;2024-02-14T06:27:10;8.00;81.50
84739;DHT22;74969;44.836;-0.586;2024-02-14T06:29:35;8.10;81.20
84739;DHT22;74969;44.836;-0.586;2024-02-14T06:32:01;8.00;81.30
84739;DHT22;74969;44.836;-0.586;2024-02-14T06:34:27;7.90;81.60
84739;DHT22;74969;44.836;-0.586;2024-02-14T06:36:54;7.90;81.60
84739;DHT22;74969;44.836;-0.586;2024-02-14T06:39:20;7.90;81.60
84739;DHT22;74969;44.836;-0.586;2024-02-14T06:41:48;7.90;81.70
84739;DHT22;74969;44.836;-0.586;2024-02-14T06:44:14;7.90;81.90
84739;DHT22;74969;44.836;-0.586;2024-02-14T06:46:40;7.90;81.80
84739;DHT22;74969;44.836;-0.586;2024-02-14T06:49:07;7.90;81.70
84739;DHT22;74969;44.836;-0.586;2024-02-14T06:51:33;7.90;81.50
84739;DHT22;74969;44.836;-0.586;2024-02-14T06:53:58;7.90;81.50
84739;DHT22;74969;44.836;-0.586;2024-02-14T06:56:24;7.90;81.50
84739;DHT22;74969;44.836;-0.586;2024-02-14T06:58:50;7.90;81.60
84739;DHT22;74969;44.836;-0.586;2024-02-14T07:01:19;7.90;81.50
84739;DHT22;74969;44.836;-0.586;2024-02-14T07:03:48;7.80;81.60
84739;DHT22;74969;44.836;-0.586;2024-02-14T07:06:15;7.80;81.50
84739;DHT22;74969;44.836;-0.586;2024-02-14T07:08:41;7.90;81.50
84739;DHT22;74969;44.836;-0.586;2024-02-14T07:11:07;7.80;81.50
84739;DHT22;74969;44.836;-0.586;2024-02-14T07:13:32;7.80;81.40
84739;DHT22;74969;44.836;-0.586;2024-02-14T07:15:58;7.80;81.50
84739;DHT22;74969;44.836;-0.586;2024-02-14T07:18:23;7.90;81.30
84739;DHT22;74969;44.836;-0.586;2024-02-14T07:20:49;7.90;81.30
84739;DHT22;74969;44.836;-0.586;2024-02-14T07:23:15;7.90;81.40
84739;DHT22;74969;44.836;-0.586;2024-02-14T07:25:40;7.90;81.10
84739;DHT22;74969;44.836;-0.586;2024-02-14T07:28:06;7.80;81.20
84739;DHT22;74969;44.836;-0.586;2024-02-14T07:30:32;7.80;81.20
84739;DHT22;74969;44.836;-0.586;2024-02-14T07:32:57;7.80;81.10
84739;DHT22;74969;44.836;-0.586;2024-02-14T07:35:23;7.80;81.10
84739;DHT22;74969;44.836;-0.586;2024-02-14T07:37:49;7.80;81.20
84739;DHT22;74969;44.836;-0.586;2024-02-14T07:40:14;7.80;81.00
84739;DHT22;74969;44.836;-0.586;2024-02-14T07:42:40;7.80;81.10
84739;DHT22;74969;44.836;-0.586;2024-02-14T07:45:06;7.80;80.90
84739;DHT22;74969;44.836;-0.586;2024-02-14T07:47:32;7.80;81.00
84739;DHT22;74969;44.836;-0.586;2024-02-14T07:49:57;7.80;81.10
84739;DHT22;74969;44.836;-0.586;2024-02-14T07:52:23;7.80;81.10
84739;DHT22;74969;44.836;-0.586;2024-02-14T07:54:53;7.80;81.10
84739;DHT22;74969;44.836;-0.586;2024-02-14T07:57:22;7.80;81.10
84739;DHT22;74969;44.836;-0.586;2024-02-14T07:59:48;7.90;81.20
84739;DHT22;74969;44.836;-0.586;2024-02-14T08:02:14;7.90;81.10
84739;DHT22;74969;44.836;-0.586;2024-02-14T08:04:39;8.00;81.00
84739;DHT22;74969;44.836;-0.586;2024-02-14T08:07:05;8.00;80.90
84739;DHT22;74969;44.836;-0.586;2024-02-14T08:09:31;8.10;80.90
84739;DHT22;74969;44.836;-0.586;2024-02-14T08:11:56;8.20;80.40
84739;DHT22;74969;44.836;-0.586;2024-02-14T08:14:22;8.30;79.90
84739;DHT22;74969;44.836;-0.586;2024-02-14T08:16:48;8.30;79.90
84739;DHT22;74969;44.836;-0.586;2024-02-14T08:19:13;8.40;79.80
84739;DHT22;74969;44.836;-0.586;2024-02-14T08:21:39;8.40;79.50
84739;DHT22;74969;44.836;-0.586;2024-02-14T08:24:06;8.50;79.60
84739;DHT22;74969;44.836;-0.586;2024-02-14T08:26:31;8.70;79.20
84739;DHT22;74969;44.836;-0.586;2024-02-14T08:29:36;9.30;78.10
84739;DHT22;74969;44.836;-0.586;2024-02-14T08:32:01;8.90;78.50
84739;DHT22;74969;44.836;-0.586;2024-02-14T08:34:28;9.00;78.30
84739;DHT22;74969;44.836;-0.586;2024-02-14T08:36:54;9.00;77.80
84739;DHT22;74969;44.836;-0.586;2024-02-14T08:39:20;9.10;77.50
84739;DHT22;74969;44.836;-0.586;2024-02-14T08:41:46;9.20;77.90
84739;DHT22;74969;44.836;-0.586;2024-02-14T08:44:13;9.50;77.50
84739;DHT22;74969;44.836;-0.586;2024-02-14T08:46:38;10.00;75.90
84739;DHT22;74969;44.836;-0.586;2024-02-14T08:49:04;10.50;74.10
84739;DHT22;74969;44.836;-0.586;2024-02-14T08:51:37;10.90;73.60
84739;DHT22;74969;44.836;-0.586;2024-02-14T08:54:04;11.50;71.80
84739;DHT22;74969;44.836;-0.586;2024-02-14T08:56:35;12.00;69.50
84739;DHT22;74969;44.836;-0.586;2024-02-14T08:59:04;12.30;68.60
84739;DHT22;74969;44.836;-0.586;2024-02-14T09:01:32;12.60;67.50
84739;DHT22;74969;44.836;-0.586;2024-02-14T09:03:58;12.70;67.40
84739;DHT22;74969;44.836;-0.586;2024-02-14T09:06:25;13.00;66.30
84739;DHT22;74969;44.836;-0.586;2024-02-14T09:08:52;13.10;66.00
84739;DHT22;74969;44.836;-0.586;2024-02-14T09:11:19;13.50;64.90
84739;DHT22;74969;44.836;-0.586;2024-02-14T09:13:45;13.90;64.30
84739;DHT22;74969;44.836;-0.586;2024-02-14T09:16:13;14.00;62.30
84739;DHT22;74969;44.836;-0.586;2024-02-14T09:18:40;14.10;63.20
84739;DHT22;74969;44.836;-0.586;2024-02-14T09:21:06;14.30;62.10
84739;DHT22;74969;44.836;-0.586;2024-02-14T09:23:32;14.40;62.40
84739;DHT22;74969;44.836;-0.586;2024-02-14T09:25:58;14.40;62.00
84739;DHT22;74969;44.836;-0.586;2024-02-14T09:28:24;14.80;61.60
84739;DHT22;74969;44.836;-0.586;2024-02-14T09:30:51;14.70;60.40
84739;DHT22;74969;44.836;-0.586;2024-02-14T09:33:17;14.50;60.30
84739;DHT22;74969;44.836;-0.586;2024-02-14T09:35:43;14.30;62.80
84739;DHT22;74969;44.836;-0.586;2024-02-14T09:38:13;14.30;60.60
84739;DHT22;74969;44.836;-0.586;2024-02-14T09:40:42;14.00;61.20
84739;DHT22;74969;44.836;-0.586;2024-02-14T09:43:38;13.70;62.20
84739;DHT22;74969;44.836;-0.586;2024-02-14T09:46:06;13.80;63.30
84739;DHT22;74969;44.836;-0.586;2024-02-14T09:48:33;14.30;62.80
84739;DHT22;74969;44.836;-0.586;2024-02-14T09:50:59;14.70;60.10
84739;DHT22;74969;44.836;-0.586;2024-02-14T09:53:26;14.30;60.50
84739;DHT22;74969;44.836;-0.586;2024-02-14T09:55:54;14.10;61.50
84739;DHT22;74969;44.836;-0.586;2024-02-14T09:58:20;14.30;62.80
84739;DHT22;74969;44.836;-0.586;2024-02-14T10:00:46;14.70;60.50
84739;DHT22;74969;44.836;-0.586;2024-02-14T10:03:12;15.00;60.40
84739;DHT22;74969;44.836;-0.586;2024-02-14T10:05:38;15.40;59.80
84739;DHT22;74969;44.836;-0.586;2024-02-14T10:08:04;15.70;58.10
84739;DHT22;74969;44.836;-0.586;2024-02-14T10:10:32;15.70;59.00
84739;DHT22;74969;44.836;-0.586;2024-02-14T10:13:00;16.00;57.90
84739;DHT22;74969;44.836;-0.586;2024-02-14T10:15:28;15.90;56.30
84739;DHT22;74969;44.836;-0.586;2024-02-14T10:17:59;15.40;57.20
84739;DHT22;74969;44.836;-0.586;2024-02-14T10:20:26;15.10;59.30
84739;DHT22;74969;44.836;-0.586;2024-02-14T10:23:00;15.10;58.50
84739;DHT22;74969;44.836;-0.586;2024-02-14T10:25:27;14.80;59.00
84739;DHT22;74969;44.836;-0.586;2024-02-14T10:27:52;15.00;59.40
84739;DHT22;74969;44.836;-0.586;2024-02-14T10:30:18;15.40;59.00
84739;DHT22;74969;44.836;-0.586;2024-02-14T10:32:44;15.60;57.20
84739;DHT22;74969;44.836;-0.586;2024-02-14T10:35:13;15.70;57.70
84739;DHT22;74969;44.836;-0.586;2024-02-14T10:37:39;15.30;57.00
84739;DHT22;74969;44.836;-0.586;2024-02-14T10:40:06;14.70;58.60
84739;DHT22;74969;44.836;-0.586;2024-02-14T10:42:32;14.70;59.10
84739;DHT22;74969;44.836;-0.586;2024-02-14T10:45:02;14.60;59.80
84739;DHT22;74969;44.836;-0.586;2024-02-14T10:47:35;15.10;60.00
84739;DHT22;74969;44.836;-0.586;2024-02-14T10:50:06;15.80;58.20
84739;DHT22;74969;44.836;-0.586;2024-02-14T10:52:34;15.90;58.10
84739;DHT22;74969;44.836;-0.586;2024-02-14T10:55:02;16.00;56.60
84739;DHT22;74969;44.836;-0.586;2024-02-14T10:57:29;15.90;57.80
84739;DHT22;74969;44.836;-0.586;2024-02-14T10:59:55;16.20;57.70
84739;DHT22;74969;44.836;-0.586;2024-02-14T11:02:23;16.50;57.90
84739;DHT22;74969;44.836;-0.586;2024-02-14T11:04:49;16.80;57.20
84739;DHT22;74969;44.836;-0.586;2024-02-14T11:07:20;16.90;56.00
84739;DHT22;74969;44.836;-0.586;2024-02-14T11:09:45;16.90;56.30
84739;DHT22;74969;44.836;-0.586;2024-02-14T11:12:11;17.10;55.30
84739;DHT22;74969;44.836;-0.586;2024-02-14T11:14:37;17.10;55.20
84739;DHT22;74969;44.836;-0.586;2024-02-14T11:17:09;17.00;55.00
84739;DHT22;74969;44.836;-0.586;2024-02-14T11:19:35;17.00;55.60
84739;DHT22;74969;44.836;-0.586;2024-02-14T11:22:21;17.10;55.40
84739;DHT22;74969;44.836;-0.586;2024-02-14T11:24:47;17.10;54.80
84739;DHT22;74969;44.836;-0.586;2024-02-14T11:27:14;16.90;54.80
84739;DHT22;74969;44.836;-0.586;2024-02-14T11:29:40;16.60;55.50
84739;DHT22;74969;44.836;-0.586;2024-02-14T11:32:09;16.60;56.60
84739;DHT22;74969;44.836;-0.586;2024-02-14T11:34:36;16.80;56.60
84739;DHT22;74969;44.836;-0.586;2024-02-14T11:37:03;17.10;55.90
84739;DHT22;74969;44.836;-0.586;2024-02-14T11:39:32;17.20;55.40
84739;DHT22;74969;44.836;-0.586;2024-02-14T11:41:58;17.00;54.90
84739;DHT22;74969;44.836;-0.586;2024-02-14T11:44:25;17.10;55.80
84739;DHT22;74969;44.836;-0.586;2024-02-14T11:46:51;17.20;54.60
84739;DHT22;74969;44.836;-0.586;2024-02-14T11:49:18;17.40;55.60
84739;DHT22;74969;44.836;-0.586;2024-02-14T11:51:44;17.60;55.40
84739;DHT22;74969;44.836;-0.586;2024-02-14T11:54:10;17.80;55.70
84739;DHT22;74969;44.836;-0.586;2024-02-14T11:56:37;17.90;54.90
84739;DHT22;74969;44.836;-0.586;2024-02-14T11:59:04;17.90;54.50
84739;DHT22;74969;44.836;-0.586;2024-02-14T12:01:31;17.90;54.30
84739;DHT22;74969;44.836;-0.586;2024-02-14T12:04:02;18.00;53.90
84739;DHT22;74969;44.836;-0.586;2024-02-14T12:06:30;17.80;54.50
84739;DHT22;74969;44.836;-0.586;2024-02-14T12:09:03;17.80;55.20
84739;DHT22;74969;44.836;-0.586;2024-02-14T12:11:35;17.80;53.90
84739;DHT22;74969;44.836;-0.586;2024-02-14T12:14:07;17.60;54.00
84739;DHT22;74969;44.836;-0.586;2024-02-14T12:16:36;17.30;54.90
84739;DHT22;74969;44.836;-0.586;2024-02-14T12:19:14;17.30;56.00
84739;DHT22;74969;44.836;-0.586;2024-02-14T12:21:41;17.40;55.60
84739;DHT22;74969;44.836;-0.586;2024-02-14T12:24:09;17.40;55.70
84739;DHT22;74969;44.836;-0.586;2024-02-14T12:26:36;17.40;56.20
84739;DHT22;74969;44.836;-0.586;2024-02-14T12:29:03;17.50;56.70
84739;DHT22;74969;44.836;-0.586;2024-02-14T12:31:29;17.50;56.20
84739;DHT22;74969;44.836;-0.586;2024-02-14T12:33:57;17.60;55.80
84739;DHT22;74969;44.836;-0.586;2024-02-14T12:36:25;17.40;56.10
84739;DHT22;74969;44.836;-0.586;2024-02-14T12:38:52;17.30;56.80
84739;DHT22;74969;44.836;-0.586;2024-02-14T12:41:18;17.40;56.50
84739;DHT22;74969;44.836;-0.586;2024-02-14T12:43:44;17.20;56.70
84739;DHT22;74969;44.836;-0.586;2024-02-14T12:46:10;17.20;57.10
84739;DHT22;74969;44.836;-0.586;2024-02-14T12:48:36;17.30;57.30
84739;DHT22;74969;44.836;-0.586;2024-02-14T12:51:02;17.30;56.90
84739;DHT22;74969;44.836;-0.586;2024-02-14T12:53:27;17.30;57.10
84739;DHT22;74969;44.836;-0.586;2024-02-14T12:55:53;17.40;57.10
84739;DHT22;74969;44.836;-0.586;2024-02-14T12:58:19;17.40;57.20
84739;DHT22;74969;44.836;-0.586;2024-02-14T13:00:45;17.50;57.20
84739;DHT22;74969;44.836;-0.586;2024-02-14T13:03:11;17.40;57.00
84739;DHT22;74969;44.836;-0.586;2024-02-14T13:05:37;17.40;56.90
84739;DHT22;74969;44.836;-0.586;2024-02-14T13:08:03;17.40;57.30
84739;DHT22;74969;44.836;-0.586;2024-02-14T13:10:29;17.50;57.20
84739;DHT22;74969;44.836;-0.586;2024-02-14T13:12:57;17.50;57.20
84739;DHT22;74969;44.836;-0.586;2024-02-14T13:15:23;17.60;57.30
84739;DHT22;74969;44.836;-0.586;2024-02-14T13:18:55;18.40;56.60
84739;DHT22;74969;44.836;-0.586;2024-02-14T13:21:21;17.90;57.10
84739;DHT22;74969;44.836;-0.586;2024-02-14T13:23:47;17.90;56.70
84739;DHT22;74969;44.836;-0.586;2024-02-14T13:26:13;17.80;56.80
84739;DHT22;74969;44.836;-0.586;2024-02-14T13:28:39;17.80;56.90
84739;DHT22;74969;44.836;-0.586;2024-02-14T13:31:06;17.90;57.10
84739;DHT22;74969;44.836;-0.586;2024-02-14T13:33:32;18.00;57.10
84739;DHT22;74969;44.836;-0.586;2024-02-14T13:37:45;18.90;55.50
84739;DHT22;74969;44.836;-0.586;2024-02-14T13:40:11;18.30;56.20
84739;DHT22;74969;44.836;-0.586;2024-02-14T13:42:37;18.40;56.80
84739;DHT22;74969;44.836;-0.586;2024-02-14T13:45:07;18.50;56.30
84739;DHT22;74969;44.836;-0.586;2024-02-14T13:47:37;18.50;56.70
84739;DHT22;74969;44.836;-0.586;2024-02-14T13:50:08;18.60;56.50
84739;DHT22;74969;44.836;-0.586;2024-02-14T13:52:35;18.70;56.40
84739;DHT22;74969;44.836;-0.586;2024-02-14T13:55:04;18.80;55.90
84739;DHT22;74969;44.836;-0.586;2024-02-14T13:57:39;18.60;55.60
84739;DHT22;74969;44.836;-0.586;2024-02-14T14:00:07;18.40;56.30
84739;DHT22;74969;44.836;-0.586;2024-02-14T14:02:37;18.40;56.20
84739;DHT22;74969;44.836;-0.586;2024-02-14T14:05:07;18.40;56.60
84739;DHT22;74969;44.836;-0.586;2024-02-14T14:07:35;18.40;56.80
84739;DHT22;74969;44.836;-0.586;2024-02-14T14:10:03;18.60;56.70
84739;DHT22;74969;44.836;-0.586;2024-02-14T14:12:28;18.60;56.40
84739;DHT22;74969;44.836;-0.586;2024-02-14T14:14:54;18.70;55.90
84739;DHT22;74969;44.836;-0.586;2024-02-14T14:17:20;18.70;56.20
84739;DHT22;74969;44.836;-0.586;2024-02-14T14:19:45;18.70;56.20
84739;DHT22;74969;44.836;-0.586;2024-02-14T14:22:11;18.80;56.50
84739;DHT22;74969;44.836;-0.586;2024-02-14T14:24:37;18.90;56.40
84739;DHT22;74969;44.836;-0.586;2024-02-14T14:27:02;19.00;56.30
84739;DHT22;74969;44.836;-0.586;2024-02-14T14:29:28;19.10;56.20
84739;DHT22;74969;44.836;-0.586;2024-02-14T14:31:54;19.20;55.70
84739;DHT22;74969;44.836;-0.586;2024-02-14T14:34:20;19.20;55.50
84739;DHT22;74969;44.836;-0.586;2024-02-14T14:36:45;19.20;55.10
84739;DHT22;74969;44.836;-0.586;2024-02-14T14:39:11;19.20;55.20
84739;DHT22;74969;44.836;-0.586;2024-02-14T14:41:40;19.20;55.50
84739;DHT22;74969;44.836;-0.586;2024-02-14T14:44:07;19.20;55.20
84739;DHT22;74969;44.836;-0.586;2024-02-14T14:46:33;19.20;55.00
84739;DHT22;74969;44.836;-0.586;2024-02-14T14:49:00;19.20;54.80
84739;DHT22;74969;44.836;-0.586;2024-02-14T14:51:26;19.30;55.00
84739;DHT22;74969;44.836;-0.586;2024-02-14T14:53:52;19.40;55.00
84739;DHT22;74969;44.836;-0.586;2024-02-14T14:56:18;19.50;54.90
84739;DHT22;74969;44.836;-0.586;2024-02-14T14:58:44;19.50;54.60
84739;DHT22;74969;44.836;-0.586;2024-02-14T15:01:10;19.40;54.40
84739;DHT22;74969;44.836;-0.586;2024-02-14T15:03:35;19.40;54.30
84739;DHT22;74969;44.836;-0.586;2024-02-14T15:06:01;19.40;54.60
84739;DHT22;74969;44.836;-0.586;2024-02-14T15:08:27;19.40;54.20
84739;DHT22;74969;44.836;-0.586;2024-02-14T15:10:54;19.40;54.30
84739;DHT22;74969;44.836;-0.586;2024-02-14T15:13:21;19.40;54.60
84739;DHT22;74969;44.836;-0.586;2024-02-14T15:15:47;19.40;54.60
84739;DHT22;74969;44.836;-0.586;2024-02-14T15:18:13;19.40;54.50
84739;DHT22;74969;44.836;-0.586;2024-02-14T15:20:40;19.40;54.60
84739;DHT22;74969;44.836;-0.586;2024-02-14T15:23:05;19.40;54.60